createdAt,value
2019-05-19T00:01:12.422Z,89.10
2019-05-19T00:03:41.261Z,89.10
2019-05-19T00:06:10.103Z,88.80
2019-05-19T00:08:38.970Z,88.70
2019-05-19T00:11:07.808Z,88.80
2019-05-19T00:13:36.662Z,88.70
2019-05-19T00:16:05.495Z,89.10
2019-05-19T00:18:34.359Z,89.30
2019-05-19T00:21:03.188Z,89.20
2019-05-19T00:23:32.059Z,89.20
2019-05-19T00:26:01.000Z,89.50
2019-05-19T00:28:29.831Z,89.30
2019-05-19T00:30:58.695Z,89.30
2019-05-19T00:33:27.509Z,90.00
2019-05-19T00:35:56.387Z,89.90
2019-05-19T00:38:25.220Z,90.20
2019-05-19T00:40:54.056Z,90.00
2019-05-19T00:43:22.924Z,90.00
2019-05-19T00:45:51.755Z,90.00
2019-05-19T00:48:20.643Z,90.20
2019-05-19T00:50:49.470Z,90.10
2019-05-19T00:53:18.294Z,90.00
2019-05-19T00:55:47.661Z,90.10
2019-05-19T00:58:16.912Z,90.00
2019-05-19T01:00:46.245Z,89.90
2019-05-19T01:03:15.091Z,90.00
2019-05-19T01:05:43.987Z,89.90
2019-05-19T01:08:12.817Z,89.70
2019-05-19T01:10:41.715Z,89.70
2019-05-19T01:13:10.531Z,89.80
2019-05-19T01:15:39.354Z,89.80
2019-05-19T01:18:08.239Z,89.80
2019-05-19T01:20:37.063Z,89.80
2019-05-19T01:23:05.953Z,89.50
2019-05-19T01:25:34.795Z,89.80
2019-05-19T01:28:03.628Z,89.40
2019-05-19T01:30:32.498Z,89.50
2019-05-19T01:33:01.314Z,89.80
2019-05-19T01:35:30.214Z,89.80
2019-05-19T01:37:59.051Z,90.00
2019-05-19T01:40:27.879Z,90.10
2019-05-19T01:42:56.758Z,90.10
2019-05-19T01:45:26.134Z,90.00
2019-05-19T01:47:55.039Z,90.10
2019-05-19T01:50:23.864Z,90.20
2019-05-19T01:52:52.706Z,90.50
2019-05-19T01:55:21.583Z,90.50
2019-05-19T01:57:50.441Z,90.70
2019-05-19T02:00:19.595Z,90.70
2019-05-19T02:02:48.701Z,90.90
2019-05-19T02:05:17.739Z,90.60
2019-05-19T02:07:46.592Z,90.70
2019-05-19T02:10:16.734Z,90.80
2019-05-19T02:12:45.592Z,91.00
2019-05-19T02:15:14.734Z,91.10
2019-05-19T02:17:43.583Z,91.40
2019-05-19T02:20:12.820Z,91.70
2019-05-19T02:22:41.656Z,91.90
2019-05-19T02:25:11.047Z,92.20
2019-05-19T02:27:39.899Z,92.30
2019-05-19T02:30:09.618Z,92.40
2019-05-19T02:32:38.462Z,92.80
2019-05-19T02:35:07.896Z,93.00
2019-05-19T02:37:36.724Z,93.00
2019-05-19T02:40:07.473Z,93.10
2019-05-19T02:42:41.371Z,93.00
2019-05-19T02:45:11.286Z,93.60
2019-05-19T02:47:43.081Z,93.30
2019-05-19T02:50:13.245Z,93.70
2019-05-19T02:52:44.359Z,93.50
2019-05-19T02:55:13.188Z,93.70
2019-05-19T02:57:43.339Z,94.00
2019-05-19T03:00:13.798Z,94.50
2019-05-19T03:02:42.672Z,94.10
2019-05-19T03:05:11.795Z,93.90
2019-05-19T03:07:40.633Z,94.20
2019-05-19T03:10:09.702Z,94.00
2019-05-19T03:12:38.550Z,94.50
2019-05-19T03:15:07.825Z,94.70
2019-05-19T03:17:36.647Z,94.80
2019-05-19T03:20:06.947Z,94.80
2019-05-19T03:22:35.811Z,94.30
2019-05-19T03:25:06.626Z,94.50
2019-05-19T03:27:35.515Z,94.80
2019-05-19T03:30:24.046Z,95.00
2019-05-19T03:32:54.534Z,95.10
2019-05-19T03:35:23.372Z,95.20
2019-05-19T03:37:52.213Z,95.30
2019-05-19T03:40:21.092Z,95.00
2019-05-19T03:42:51.626Z,94.90
2019-05-19T03:45:20.619Z,94.70
2019-05-19T03:47:49.464Z,94.90
2019-05-19T03:50:18.294Z,94.40
2019-05-19T03:52:47.275Z,94.20
2019-05-19T03:55:16.102Z,94.00
2019-05-19T03:57:44.997Z,94.30
2019-05-19T04:00:14.819Z,94.20
2019-05-19T04:02:43.659Z,93.90
2019-05-19T04:05:13.078Z,94.40
2019-05-19T04:07:41.909Z,94.40
2019-05-19T04:10:11.508Z,94.40
2019-05-19T04:12:40.332Z,94.30
2019-05-19T04:15:09.776Z,94.30
2019-05-19T04:17:38.658Z,94.40
2019-05-19T04:20:07.983Z,94.40
2019-05-19T04:22:37.386Z,94.30
2019-05-19T04:25:07.116Z,94.30
2019-05-19T04:27:35.981Z,94.40
2019-05-19T04:30:06.824Z,94.20
2019-05-19T04:32:35.655Z,94.60
2019-05-19T04:35:06.355Z,94.20
2019-05-19T04:37:35.179Z,94.20
2019-05-19T04:40:06.530Z,94.20
2019-05-19T04:42:35.379Z,94.30
2019-05-19T04:45:04.808Z,94.40
2019-05-19T04:47:33.714Z,94.60
2019-05-19T04:50:02.525Z,93.50
2019-05-19T04:52:31.341Z,93.40
2019-05-19T04:55:00.185Z,92.70
2019-05-19T04:57:29.037Z,93.10
2019-05-19T04:59:57.932Z,93.60
2019-05-19T05:02:26.769Z,93.70
2019-05-19T05:04:55.649Z,93.30
2019-05-19T05:07:25.238Z,92.70
2019-05-19T05:09:54.055Z,92.40
2019-05-19T05:12:22.925Z,92.50
2019-05-19T05:14:51.755Z,92.40
2019-05-19T05:17:20.593Z,92.40
2019-05-19T05:19:49.469Z,92.40
2019-05-19T05:22:22.060Z,92.30
2019-05-19T05:24:48.820Z,92.20
2019-05-19T05:27:17.666Z,92.00
2019-05-19T05:29:46.496Z,92.00
2019-05-19T05:32:15.363Z,92.20
2019-05-19T05:34:44.187Z,92.20
2019-05-19T05:37:13.076Z,91.90
2019-05-19T05:39:41.902Z,92.00
2019-05-19T05:42:10.748Z,91.80
2019-05-19T05:44:39.601Z,91.80
2019-05-19T05:47:08.433Z,92.00
2019-05-19T05:49:37.324Z,92.00
2019-05-19T05:52:06.161Z,91.70
2019-05-19T05:54:35.002Z,91.60
2019-05-19T05:57:03.862Z,91.50
2019-05-19T05:59:32.679Z,91.50
2019-05-19T06:02:01.567Z,91.30
2019-05-19T06:04:30.377Z,91.30
2019-05-19T06:06:59.203Z,91.00
2019-05-19T06:09:28.081Z,90.90
2019-05-19T06:11:56.922Z,91.00
2019-05-19T06:14:25.844Z,90.80
2019-05-19T06:16:54.639Z,90.60
2019-05-19T06:19:23.470Z,90.80
2019-05-19T06:21:52.334Z,91.00
2019-05-19T06:24:21.182Z,90.90
2019-05-19T06:26:50.059Z,90.50
2019-05-19T06:29:18.897Z,90.70
2019-05-19T06:31:47.708Z,90.80
2019-05-19T06:34:16.577Z,90.80
2019-05-19T06:36:45.427Z,90.90
2019-05-19T06:39:14.325Z,90.80
2019-05-19T06:41:43.166Z,91.10
2019-05-19T06:44:12.003Z,90.90
2019-05-19T06:46:40.882Z,91.10
2019-05-19T06:49:09.703Z,91.10
2019-05-19T06:51:38.587Z,91.50
2019-05-19T06:54:07.409Z,91.20
2019-05-19T06:56:36.242Z,91.30
2019-05-19T06:59:05.087Z,91.10
2019-05-19T07:01:33.921Z,91.30
2019-05-19T07:04:02.799Z,91.40
2019-05-19T07:06:34.093Z,91.60
2019-05-19T07:09:02.131Z,91.80
2019-05-19T07:11:30.982Z,91.80
2019-05-19T07:14:02.924Z,92.00
2019-05-19T07:16:30.362Z,92.10
2019-05-19T07:18:59.194Z,92.40
2019-05-19T07:21:28.016Z,92.50
2019-05-19T07:23:56.894Z,92.60
2019-05-19T07:26:26.146Z,92.70
2019-05-19T07:28:55.047Z,92.40
2019-05-19T07:31:23.867Z,93.00
2019-05-19T07:33:52.700Z,92.90
2019-05-19T07:36:21.564Z,93.20
2019-05-19T07:38:50.384Z,93.10
2019-05-19T07:41:19.257Z,93.00
2019-05-19T07:43:48.074Z,93.00
2019-05-19T07:46:16.908Z,93.20
2019-05-19T07:48:45.778Z,92.70
2019-05-19T07:51:14.617Z,92.50
2019-05-19T07:53:43.535Z,92.70
2019-05-19T07:56:12.406Z,93.00
2019-05-19T07:58:41.235Z,92.60
2019-05-19T08:01:10.085Z,92.10
2019-05-19T08:03:38.937Z,92.20
2019-05-19T08:06:07.996Z,92.30
2019-05-19T08:08:36.857Z,92.90
2019-05-19T08:11:05.711Z,92.80
2019-05-19T08:13:34.582Z,92.90
2019-05-19T08:16:03.403Z,92.80
2019-05-19T08:18:32.291Z,92.60
2019-05-19T08:21:01.123Z,92.80
2019-05-19T08:23:29.959Z,92.80
2019-05-19T08:25:58.835Z,92.90
2019-05-19T08:28:27.645Z,92.80
2019-05-19T08:30:56.557Z,93.10
2019-05-19T08:33:25.415Z,93.10
2019-05-19T08:35:54.245Z,93.20
2019-05-19T08:38:23.116Z,92.90
2019-05-19T08:40:52.059Z,93.00
2019-05-19T08:43:20.986Z,92.80
2019-05-19T08:45:49.831Z,92.70
2019-05-19T08:48:18.655Z,92.80
2019-05-19T08:50:47.515Z,93.00
2019-05-19T08:53:16.357Z,93.10
2019-05-19T08:55:45.257Z,92.80
2019-05-19T08:58:14.083Z,93.40
2019-05-19T09:00:42.930Z,92.40
2019-05-19T09:03:11.806Z,92.80
2019-05-19T09:05:40.631Z,92.30
2019-05-19T09:08:09.508Z,92.70
2019-05-19T09:10:38.343Z,92.50
2019-05-19T09:13:07.180Z,92.50
2019-05-19T09:15:36.047Z,92.70
2019-05-19T09:18:04.894Z,92.10
2019-05-19T09:20:33.787Z,92.30
2019-05-19T09:23:02.592Z,92.40
2019-05-19T09:25:31.437Z,92.60
2019-05-19T09:28:00.319Z,92.30
2019-05-19T09:30:29.144Z,91.80
2019-05-19T09:32:58.049Z,92.00
2019-05-19T09:35:26.879Z,91.80
2019-05-19T09:37:55.717Z,92.10
2019-05-19T09:40:26.662Z,91.60
2019-05-19T09:42:55.062Z,91.60
2019-05-19T09:45:23.945Z,91.80
2019-05-19T09:47:52.865Z,92.00
2019-05-19T09:50:21.696Z,92.10
2019-05-19T09:52:50.546Z,92.10
2019-05-19T09:55:19.379Z,92.60
2019-05-19T09:57:48.273Z,92.90
2019-05-19T10:00:19.403Z,93.30
2019-05-19T10:02:48.227Z,93.60
2019-05-19T10:05:17.191Z,93.60
2019-05-19T10:07:46.022Z,93.80
2019-05-19T10:10:17.840Z,94.00
2019-05-19T10:12:46.671Z,94.20
2019-05-19T10:15:15.595Z,94.20
2019-05-19T10:17:44.459Z,94.50
2019-05-19T10:20:15.057Z,94.40
2019-05-19T10:22:43.939Z,94.20
2019-05-19T10:25:22.585Z,94.40
2019-05-19T10:27:43.832Z,94.10
2019-05-19T10:30:14.041Z,93.80
2019-05-19T10:32:42.887Z,93.40
2019-05-19T10:35:12.249Z,93.40
2019-05-19T10:37:41.056Z,93.40
2019-05-19T10:40:10.347Z,93.60
2019-05-19T10:42:39.190Z,93.50
2019-05-19T10:45:10.131Z,93.30
2019-05-19T10:47:38.996Z,93.40
2019-05-19T10:50:07.919Z,93.60
2019-05-19T10:52:36.803Z,93.20
2019-05-19T10:55:07.035Z,92.80
2019-05-19T10:57:35.854Z,93.10
2019-05-19T11:00:09.391Z,93.10
2019-05-19T11:02:38.237Z,93.30
2019-05-19T11:05:11.021Z,92.90
2019-05-19T11:07:38.778Z,93.20
2019-05-19T11:10:08.068Z,92.90
2019-05-19T11:12:36.902Z,92.80
2019-05-19T11:15:07.519Z,93.20
2019-05-19T11:17:36.387Z,93.00
2019-05-19T11:20:06.420Z,93.20
2019-05-19T11:22:35.300Z,93.30
2019-05-19T11:25:05.033Z,93.10
2019-05-19T11:27:33.862Z,93.00
2019-05-19T11:30:02.730Z,93.30
2019-05-19T11:32:31.559Z,93.30
2019-05-19T11:35:00.417Z,92.80
2019-05-19T11:37:29.281Z,92.50
2019-05-19T11:39:58.111Z,92.90
2019-05-19T11:42:26.989Z,92.70
2019-05-19T11:44:55.842Z,92.80
2019-05-19T11:47:24.680Z,92.90
2019-05-19T11:49:53.556Z,93.20
2019-05-19T11:52:22.394Z,93.00
2019-05-19T11:54:51.288Z,93.10
2019-05-19T11:57:20.137Z,92.90
2019-05-19T11:59:48.958Z,93.00
2019-05-19T12:02:17.815Z,93.40
2019-05-19T12:04:46.657Z,93.80
2019-05-19T12:07:15.544Z,93.80
2019-05-19T12:09:44.386Z,94.00
2019-05-19T12:12:13.207Z,93.70
2019-05-19T12:14:42.059Z,93.30
2019-05-19T12:17:10.919Z,93.00
2019-05-19T12:19:39.795Z,93.20
2019-05-19T12:22:08.625Z,93.30
2019-05-19T12:24:37.452Z,93.30
2019-05-19T12:27:06.317Z,93.00
2019-05-19T12:29:35.197Z,93.40
2019-05-19T12:32:03.989Z,93.60
2019-05-19T12:34:32.823Z,93.80
2019-05-19T12:37:01.723Z,93.50
2019-05-19T12:39:30.557Z,93.70
2019-05-19T12:41:59.397Z,93.10
2019-05-19T12:44:28.249Z,93.30
2019-05-19T12:46:57.075Z,93.40
2019-05-19T12:49:25.967Z,93.50
2019-05-19T12:51:54.815Z,93.60
2019-05-19T12:54:23.683Z,93.70
2019-05-19T12:56:52.512Z,93.80
2019-05-19T12:59:21.331Z,94.00
2019-05-19T13:01:50.217Z,94.10
2019-05-19T13:04:19.079Z,94.30
2019-05-19T13:06:47.871Z,94.10
2019-05-19T13:09:16.722Z,93.90
2019-05-19T13:11:45.552Z,94.00
2019-05-19T13:14:14.430Z,94.10
2019-05-19T13:16:43.254Z,94.40
2019-05-19T13:19:12.135Z,94.90
2019-05-19T13:21:40.977Z,94.60
2019-05-19T13:24:09.808Z,94.20
2019-05-19T13:26:38.656Z,93.20
2019-05-19T13:29:07.487Z,93.60
2019-05-19T13:31:40.715Z,93.70
2019-05-19T13:34:12.549Z,94.00
2019-05-19T13:36:44.927Z,93.70
2019-05-19T13:39:16.173Z,93.60
2019-05-19T13:41:44.988Z,93.40
2019-05-19T13:44:13.854Z,93.10
2019-05-19T13:46:42.693Z,92.80
2019-05-19T13:49:14.975Z,93.10
2019-05-19T13:51:47.109Z,93.20
2019-05-19T13:54:18.047Z,93.10
2019-05-19T13:56:46.889Z,93.10
2019-05-19T13:59:17.284Z,92.90
2019-05-19T14:01:49.502Z,92.00
2019-05-19T14:04:21.757Z,92.00
2019-05-19T14:06:53.917Z,91.70
2019-05-19T14:09:25.093Z,92.30
2019-05-19T14:11:53.878Z,92.80
2019-05-19T14:14:22.740Z,93.00
2019-05-19T14:16:51.706Z,93.70
2019-05-19T14:19:22.348Z,93.40
2019-05-19T14:21:54.705Z,92.30
2019-05-19T14:24:27.273Z,92.40
2019-05-19T14:26:59.362Z,92.00
2019-05-19T14:29:30.381Z,91.90
2019-05-19T14:32:02.462Z,92.30
2019-05-19T14:34:34.724Z,91.90
2019-05-19T14:37:03.492Z,92.90
2019-05-19T14:39:32.324Z,92.00
2019-05-19T14:42:02.881Z,91.40
2019-05-19T14:44:31.742Z,92.10
2019-05-19T14:47:00.629Z,93.60
2019-05-19T14:49:29.470Z,93.50
2019-05-19T14:51:58.297Z,94.10
2019-05-19T14:54:27.157Z,93.50
2019-05-19T14:56:55.987Z,93.50
2019-05-19T14:59:24.850Z,93.90
2019-05-19T15:01:53.673Z,94.40
2019-05-19T15:04:22.492Z,93.00
2019-05-19T15:06:51.372Z,92.60
2019-05-19T15:09:20.255Z,93.50
2019-05-19T15:11:49.091Z,94.10
2019-05-19T15:14:17.927Z,94.40
2019-05-19T15:16:46.746Z,94.40
2019-05-19T15:19:15.631Z,94.30
2019-05-19T15:21:44.465Z,94.20
2019-05-19T15:24:13.340Z,94.00
2019-05-19T15:26:42.157Z,94.30
2019-05-19T15:29:12.410Z,94.60
2019-05-19T15:31:41.257Z,93.90
2019-05-19T15:34:10.099Z,93.30
2019-05-19T15:36:39.190Z,92.90
2019-05-19T15:39:08.253Z,93.30
2019-05-19T15:41:37.109Z,92.90
2019-05-19T15:44:06.064Z,92.70
2019-05-19T15:46:34.882Z,92.70
2019-05-19T15:49:03.770Z,92.60
2019-05-19T15:51:37.431Z,92.50
2019-05-19T15:54:03.179Z,92.80
2019-05-19T15:56:32.054Z,92.80
2019-05-19T15:59:00.877Z,94.00
2019-05-19T16:01:29.751Z,94.20
2019-05-19T16:03:58.591Z,94.30
2019-05-19T16:06:27.475Z,94.00
2019-05-19T16:08:56.340Z,93.50
2019-05-19T16:11:25.171Z,93.90
2019-05-19T16:13:54.045Z,94.00
2019-05-19T16:16:22.871Z,93.70
2019-05-19T16:18:53.318Z,92.40
2019-05-19T16:21:22.294Z,92.40
2019-05-19T16:23:51.127Z,92.50
2019-05-19T16:26:19.992Z,92.30
2019-05-19T16:28:48.827Z,92.40
2019-05-19T16:31:17.711Z,92.70
2019-05-19T16:33:46.550Z,92.80
2019-05-19T16:36:15.778Z,92.60
2019-05-19T16:38:44.643Z,93.10
2019-05-19T16:41:13.493Z,92.80
2019-05-19T16:43:42.362Z,92.90
2019-05-19T16:46:11.224Z,93.20
2019-05-19T16:48:40.042Z,93.10
2019-05-19T16:51:08.903Z,92.70
2019-05-19T16:53:37.737Z,92.60
2019-05-19T16:56:06.611Z,93.30
2019-05-19T16:58:45.022Z,93.50
2019-05-19T17:01:05.933Z,93.00
2019-05-19T17:03:34.781Z,93.10
2019-05-19T17:06:03.609Z,92.80
2019-05-19T17:08:32.507Z,92.40
2019-05-19T17:11:01.344Z,92.70
2019-05-19T17:13:30.158Z,92.80
2019-05-19T17:15:59.008Z,93.00
2019-05-19T17:18:27.821Z,93.40
2019-05-19T17:20:56.707Z,94.00
2019-05-19T17:23:26.135Z,94.40
2019-05-19T17:25:54.975Z,94.80
2019-05-19T17:28:23.817Z,94.90
2019-05-19T17:30:53.033Z,95.00
2019-05-19T17:33:21.922Z,95.20
2019-05-19T17:35:50.747Z,95.00
2019-05-19T17:38:19.574Z,95.00
2019-05-19T17:40:48.458Z,95.10
2019-05-19T17:43:17.279Z,95.20
2019-05-19T17:45:46.156Z,95.40
2019-05-19T17:48:26.155Z,95.50
2019-05-19T17:50:45.464Z,95.50
2019-05-19T17:53:14.334Z,95.70
2019-05-19T17:55:44.159Z,95.90
2019-05-19T17:58:13.033Z,96.00
2019-05-19T18:00:43.889Z,96.00
2019-05-19T18:03:13.413Z,96.10
2019-05-19T18:05:42.270Z,96.30
2019-05-19T18:08:11.100Z,95.90
2019-05-19T18:10:39.972Z,96.00
2019-05-19T18:13:09.693Z,96.30
2019-05-19T18:15:38.550Z,96.00
2019-05-19T18:18:07.404Z,96.20
2019-05-19T18:20:36.246Z,96.30
2019-05-19T18:23:05.122Z,96.30
2019-05-19T18:25:33.994Z,96.50
2019-05-19T18:28:02.840Z,96.40
2019-05-19T18:30:31.689Z,96.50
2019-05-19T18:33:00.546Z,96.60
2019-05-19T18:35:29.394Z,96.40
2019-05-19T18:37:58.228Z,96.40
2019-05-19T18:40:27.093Z,96.50
2019-05-19T18:42:55.937Z,96.70
2019-05-19T18:45:24.753Z,96.80
2019-05-19T18:47:53.636Z,96.90
2019-05-19T18:50:22.469Z,97.00
2019-05-19T18:52:51.358Z,97.10
2019-05-19T18:55:20.228Z,97.10
2019-05-19T18:57:49.969Z,97.20
2019-05-19T19:00:33.379Z,97.20
2019-05-19T19:03:02.324Z,97.20
2019-05-19T19:05:31.494Z,97.30
2019-05-19T19:08:00.372Z,97.20
2019-05-19T19:10:29.228Z,97.10
2019-05-19T19:12:58.097Z,97.00
2019-05-19T19:15:26.910Z,97.10
2019-05-19T19:17:55.796Z,97.20
2019-05-19T19:20:24.654Z,97.20
2019-05-19T19:22:53.498Z,97.40
2019-05-19T19:25:22.362Z,97.30
2019-05-19T19:27:51.192Z,97.40
2019-05-19T19:30:20.179Z,97.60
2019-05-19T19:32:49.092Z,97.80
2019-05-19T19:35:17.908Z,97.90
2019-05-19T19:37:47.494Z,97.90
2019-05-19T19:40:19.273Z,97.90
2019-05-19T19:42:49.869Z,97.80
2019-05-19T19:45:19.042Z,97.90
2019-05-19T19:47:48.167Z,97.90
2019-05-19T19:50:18.457Z,97.90
2019-05-19T19:52:50.294Z,97.80
2019-05-19T19:55:19.828Z,97.90
2019-05-19T19:57:48.741Z,97.60
2019-05-19T20:00:44.291Z,97.40
2019-05-19T20:03:13.143Z,97.20
2019-05-19T20:05:41.976Z,97.30
2019-05-19T20:08:11.760Z,97.10
2019-05-19T20:10:40.579Z,97.10
2019-05-19T20:13:09.477Z,97.20
2019-05-19T20:15:38.284Z,97.30
2019-05-19T20:18:07.120Z,97.20
2019-05-19T20:20:35.985Z,97.30
2019-05-19T20:23:04.811Z,97.30
2019-05-19T20:25:36.904Z,97.30
2019-05-19T20:28:05.299Z,97.20
2019-05-19T20:30:36.177Z,97.20
2019-05-19T20:33:04.643Z,97.20
2019-05-19T20:35:33.970Z,97.00
2019-05-19T20:38:02.855Z,96.90
2019-05-19T20:40:31.681Z,97.00
2019-05-19T20:43:00.521Z,97.10
2019-05-19T20:45:29.383Z,97.10
2019-05-19T20:47:58.222Z,97.10
2019-05-19T20:50:27.082Z,96.80
2019-05-19T20:52:57.256Z,96.80
2019-05-19T20:55:26.102Z,96.80
2019-05-19T20:57:54.983Z,96.80
2019-05-19T21:00:23.797Z,96.70
2019-05-19T21:02:52.653Z,96.70
2019-05-19T21:05:21.478Z,96.80
2019-05-19T21:07:50.345Z,96.80
2019-05-19T21:10:19.254Z,96.80
2019-05-19T21:12:48.253Z,96.80
2019-05-19T21:15:17.163Z,96.80
2019-05-19T21:17:45.964Z,96.90
2019-05-19T21:20:15.090Z,96.50
2019-05-19T21:22:44.172Z,96.30
2019-05-19T21:25:13.643Z,96.30
2019-05-19T21:27:42.508Z,96.20
2019-05-19T21:30:11.539Z,96.40
2019-05-19T21:32:42.126Z,96.70
2019-05-19T21:35:10.940Z,96.90
2019-05-19T21:37:39.827Z,97.10
2019-05-19T21:40:08.687Z,97.10
2019-05-19T21:42:37.533Z,97.10
2019-05-19T21:45:07.791Z,97.10
2019-05-19T21:47:38.657Z,97.20
2019-05-19T21:50:07.940Z,97.00
2019-05-19T21:52:36.808Z,97.00
2019-05-19T21:55:08.437Z,97.00
2019-05-19T21:57:37.276Z,96.40
2019-05-19T22:00:10.567Z,96.50
2019-05-19T22:02:39.470Z,96.50
2019-05-19T22:05:08.578Z,96.40
2019-05-19T22:07:38.987Z,96.40
2019-05-19T22:10:07.851Z,96.60
2019-05-19T22:12:36.668Z,96.70
2019-05-19T22:15:06.739Z,96.70
2019-05-19T22:17:35.586Z,96.80
2019-05-19T22:20:06.530Z,96.80
2019-05-19T22:22:36.366Z,96.90
2019-05-19T22:25:07.306Z,96.90
2019-05-19T22:27:36.209Z,96.90
2019-05-19T22:30:09.819Z,96.90
2019-05-19T22:32:38.661Z,96.90
2019-05-19T22:35:08.981Z,96.90
2019-05-19T22:37:38.796Z,96.90
2019-05-19T22:40:07.998Z,96.90
2019-05-19T22:42:36.942Z,96.60
2019-05-19T22:45:08.071Z,96.60
2019-05-19T22:47:36.939Z,96.70
2019-05-19T22:50:07.969Z,97.00
2019-05-19T22:52:36.842Z,97.10
2019-05-19T22:55:09.261Z,96.90
2019-05-19T22:57:38.101Z,96.90
2019-05-19T23:00:09.823Z,96.80
2019-05-19T23:02:38.704Z,96.80
2019-05-19T23:05:08.345Z,96.50
2019-05-19T23:07:37.205Z,96.30
2019-05-19T23:10:07.361Z,96.50
2019-05-19T23:12:36.153Z,96.30
2019-05-19T23:15:08.952Z,96.40
2019-05-19T23:17:37.774Z,96.20
2019-05-19T23:20:06.977Z,96.30
2019-05-19T23:22:35.913Z,96.30
2019-05-19T23:25:06.437Z,95.80
2019-05-19T23:27:35.288Z,96.00
2019-05-19T23:30:08.713Z,96.20
2019-05-19T23:32:37.612Z,96.30
2019-05-19T23:35:09.623Z,96.40
2019-05-19T23:37:38.443Z,96.20
2019-05-19T23:40:08.406Z,96.30
2019-05-19T23:42:37.239Z,96.30
2019-05-19T23:45:07.300Z,96.40
2019-05-19T23:47:36.127Z,96.50
2019-05-19T23:50:06.823Z,96.60
2019-05-19T23:52:35.675Z,96.60
2019-05-19T23:55:06.305Z,96.70
2019-05-19T23:57:35.187Z,96.70
